Time;durP1;ratioP1;P1;durP2;ratioP2;P2;SDS_P1;SDS_P2;PMS_P1;PMS_P2;Temp;Humidity;BMP_temperature;BMP_pressure;BME280_temperature;BME280_humidity;BME280_pressure;Samples;Min_cycle;Max_cycle;Signal;HPM_P1;HPM_P2
2023/01/18 00:00:33;;;;;;;19.70;12.70;;;2.20;99.90;;;;;;4934280;29;20196;-47
2023/01/18 00:03:00;;;;;;;17.33;11.60;;;2.40;99.90;;;;;;4934378;28;20294;-47
2023/01/18 00:05:26;;;;;;;17.88;13.30;;;2.20;99.90;;;;;;4934689;29;20232;-47
2023/01/18 00:07:53;;;;;;;20.55;13.45;;;2.10;99.90;;;;;;5000009;28;20196;-47
2023/01/18 00:10:21;;;;;;;21.10;14.43;;;1.60;99.90;;;;;;4934176;29;20207;-47
2023/01/18 00:12:49;;;;;;;21.05;13.35;;;2.30;99.90;;;;;;4934213;28;20204;-47
2023/01/18 00:15:15;;;;;;;19.95;13.07;;;2.00;99.90;;;;;;4934105;29;20224;-47
2023/01/18 00:17:50;;;;;;;24.48;14.07;;;2.10;99.90;;;;;;4934201;28;20227;-47
2023/01/18 00:20:18;;;;;;;18.02;13.32;;;2.00;99.90;;;;;;4934034;28;20204;-47
2023/01/18 00:22:45;;;;;;;23.08;13.43;;;2.00;99.90;;;;;;4933901;29;20673;-48
2023/01/18 00:25:12;;;;;;;21.80;13.07;;;1.90;99.90;;;;;;4933780;29;20230;-47
2023/01/18 00:27:38;;;;;;;21.40;13.57;;;2.10;99.90;;;;;;4934004;28;20203;-47
2023/01/18 00:30:09;;;;;;;21.00;13.00;;;2.00;99.90;;;;;;4933816;29;20200;-47
2023/01/18 00:32:36;;;;;;;22.08;15.25;;;1.90;99.90;;;;;;4933911;29;20196;-47
2023/01/18 00:35:06;;;;;;;21.60;13.40;;;1.70;99.90;;;;;;4999602;28;20232;-47
2023/01/18 00:37:33;;;;;;;27.30;15.48;;;2.10;99.90;;;;;;4934264;28;20234;-47
2023/01/18 00:40:00;;;;;;;26.27;14.80;;;1.90;99.90;;;;;;4933585;29;20196;-47
2023/01/18 00:45:12;;;;;;;28.20;16.05;;;1.80;99.90;;;;;;4933621;29;20345;-47
2023/01/18 00:47:39;;;;;;;30.17;17.00;;;1.80;99.90;;;;;;4933833;29;20199;-47
2023/01/18 00:50:06;;;;;;;28.67;16.33;;;1.90;99.90;;;;;;4933334;29;20208;-47
2023/01/18 00:52:33;;;;;;;22.45;13.75;;;2.10;99.90;;;;;;4933579;29;20204;-47
2023/01/18 00:55:00;;;;;;;19.90;12.77;;;2.00;99.90;;;;;;4933743;28;20311;-47
2023/01/18 00:57:26;;;;;;;21.42;14.85;;;1.80;99.90;;;;;;4933702;28;20565;-47
2023/01/18 00:59:53;;;;;;;21.55;15.60;;;1.90;99.90;;;;;;4933412;28;20200;-47
2023/01/18 01:02:21;;;;;;;18.55;13.40;;;1.90;99.90;;;;;;4933421;29;20207;-48
2023/01/18 01:07:32;;;;;;;18.30;14.70;;;1.90;99.90;;;;;;4933362;29;20195;-47
2023/01/18 01:09:58;;;;;;;24.42;15.35;;;1.90;99.90;;;;;;4933581;29;20208;-48
2023/01/18 01:26:11;;;;;;;31.08;18.70;;;2.20;99.90;;;;;;4933342;29;20604;-47
2023/01/18 01:28:39;;;;;;;27.33;18.40;;;1.80;99.90;;;;;;4933010;29;20208;-47
2023/01/18 01:31:07;;;;;;;26.92;17.75;;;2.10;99.90;;;;;;4933100;28;20211;-47
2023/01/18 01:33:36;;;;;;;26.90;17.80;;;1.70;99.90;;;;;;4933219;28;20205;-47
2023/01/18 01:36:05;;;;;;;28.25;19.50;;;1.80;99.90;;;;;;4932985;29;20204;-47
2023/01/18 01:38:32;;;;;;;32.17;18.75;;;1.80;99.90;;;;;;4932705;29;20294;-47
2023/01/18 01:41:00;;;;;;;30.40;17.83;;;2.30;99.90;;;;;;4932773;29;20204;-47
2023/01/18 01:43:42;;;;;;;25.88;17.10;;;2.00;99.90;;;;;;4932800;29;20203;-47
2023/01/18 01:46:18;;;;;;;25.90;17.67;;;2.10;99.90;;;;;;4932974;28;20188;-48
2023/01/18 01:48:46;;;;;;;34.83;19.02;;;1.90;99.90;;;;;;4932631;29;20184;-47
2023/01/18 01:51:13;;;;;;;29.80;18.65;;;2.00;99.90;;;;;;4932950;28;20231;-47
2023/01/18 01:53:40;;;;;;;23.98;17.90;;;2.00;99.90;;;;;;4932704;28;20255;-47
2023/01/18 01:56:08;;;;;;;29.50;19.00;;;1.80;99.90;;;;;;4932624;29;20204;-47
2023/01/18 01:58:35;;;;;;;25.35;15.63;;;2.30;99.90;;;;;;4998185;28;20228;-47
2023/01/18 02:01:07;;;;;;;23.80;16.13;;;2.20;99.90;;;;;;4932611;29;20188;-47
2023/01/18 02:03:39;;;;;;;21.08;14.23;;;2.40;99.90;;;;;;4932425;29;20571;-47
2023/01/18 02:06:18;;;;;;;16.30;13.75;;;2.00;99.90;;;;;;4932675;28;20223;-47
2023/01/18 02:08:46;;;;;;;20.80;12.60;;;2.30;99.90;;;;;;4932539;28;20184;-47
2023/01/18 02:11:12;;;;;;;15.10;11.55;;;2.00;99.90;;;;;;4932577;28;20235;-47
2023/01/18 02:13:39;;;;;;;14.65;12.05;;;2.30;99.90;;;;;;4932308;29;20220;-47
2023/01/18 02:16:13;;;;;;;16.98;11.40;;;2.20;99.90;;;;;;4932317;29;20234;-47
2023/01/18 02:18:49;;;;;;;17.60;11.98;;;2.20;99.90;;;;;;4932240;29;20228;-47
2023/01/18 02:21:20;;;;;;;19.35;13.52;;;2.40;99.90;;;;;;4933042;28;20200;-47
2023/01/18 02:24:29;;;;;;;17.98;12.07;;;2.20;99.90;;;;;;4932494;29;20592;-47
2023/01/18 02:27:06;;;;;;;19.45;13.52;;;2.20;99.90;;;;;;4937297;28;20224;-47
2023/01/18 02:29:54;;;;;;;16.13;11.70;;;2.00;99.90;;;;;;4932282;28;20576;-47
2023/01/18 02:32:47;;;;;;;15.55;12.30;;;1.80;99.90;;;;;;4932173;29;20616;-47
2023/01/18 02:35:20;;;;;;;14.68;11.35;;;2.10;99.90;;;;;;4932191;29;20220;-47
2023/01/18 02:37:55;;;;;;;16.33;12.77;;;2.30;99.90;;;;;;4932201;28;20222;-47
2023/01/18 02:40:28;;;;;;;19.65;13.82;;;2.10;99.90;;;;;;4931950;29;20214;-47
2023/01/18 02:48:35;;;;;;;15.77;11.38;;;2.10;99.90;;;;;;4997501;28;20204;-47
2023/01/18 02:51:02;;;;;;;15.70;12.05;;;2.20;99.90;;;;;;4931978;28;20238;-47
2023/01/18 02:53:29;;;;;;;20.35;14.20;;;2.00;99.90;;;;;;4931858;29;20200;-47
2023/01/18 02:56:00;;;;;;;16.92;13.80;;;1.90;99.90;;;;;;4932003;29;20231;-47
2023/01/18 02:58:33;;;;;;;19.73;12.80;;;2.10;99.90;;;;;;4932100;29;20212;-47
2023/01/18 03:01:04;;;;;;;18.17;13.32;;;2.20;99.90;;;;;;4932017;29;20595;-47
2023/01/18 03:03:31;;;;;;;16.77;12.30;;;2.10;99.90;;;;;;4931736;29;20185;-47
2023/01/18 03:06:00;;;;;;;15.82;12.93;;;2.00;99.90;;;;;;4932069;29;20203;-47
2023/01/18 03:08:35;;;;;;;19.50;13.20;;;2.20;99.90;;;;;;4932188;28;20206;-47
2023/01/18 03:11:04;;;;;;;20.90;12.80;;;2.10;99.90;;;;;;4931949;28;20711;-47
2023/01/18 03:13:41;;;;;;;22.13;13.10;;;2.10;99.90;;;;;;4931668;29;20211;-46
2023/01/18 03:16:14;;;;;;;19.08;13.55;;;2.30;99.90;;;;;;4932319;28;20204;-47
2023/01/18 03:18:59;;;;;;;16.77;11.15;;;1.70;99.90;;;;;;4931418;29;20231;-47
2023/01/18 03:21:35;;;;;;;13.13;9.43;;;1.90;99.90;;;;;;4931810;28;20684;-47
2023/01/18 03:24:05;;;;;;;27.27;13.23;;;2.10;99.90;;;;;;4931671;29;20220;-47
2023/01/18 03:26:35;;;;;;;15.00;11.68;;;2.20;99.90;;;;;;4931692;28;20300;-47
2023/01/18 03:34:43;;;;;;;14.57;10.73;;;1.70;99.90;;;;;;4934732;29;20270;-47
2023/01/18 03:37:14;;;;;;;16.88;11.77;;;1.60;99.90;;;;;;4934711;29;20204;-47
2023/01/18 03:39:45;;;;;;;12.57;10.68;;;2.20;99.90;;;;;;4934520;29;20188;-47
2023/01/18 03:42:16;;;;;;;18.58;11.35;;;2.30;99.90;;;;;;4934612;29;20200;-47
2023/01/18 03:44:49;;;;;;;17.60;12.65;;;1.60;99.90;;;;;;4934769;29;20218;-47
2023/01/18 03:47:17;;;;;;;15.05;11.45;;;2.20;99.90;;;;;;4934544;29;20193;-47
2023/01/18 03:49:44;;;;;;;23.00;12.70;;;2.30;99.90;;;;;;4934490;28;20204;-47
2023/01/18 03:52:17;;;;;;;17.77;12.05;;;2.20;99.90;;;;;;4934645;28;20583;-47
2023/01/18 03:54:55;;;;;;;16.67;11.68;;;2.00;99.90;;;;;;4934370;29;20227;-47
2023/01/18 03:57:28;;;;;;;17.80;13.02;;;2.00;99.90;;;;;;4934355;29;20208;-47
2023/01/18 03:59:55;;;;;;;17.00;11.27;;;1.50;99.90;;;;;;4934488;28;20216;-47
2023/01/18 04:02:26;;;;;;;16.90;12.93;;;2.00;99.90;;;;;;4934324;29;20234;-47
2023/01/18 04:04:56;;;;;;;13.25;10.93;;;2.40;99.90;;;;;;4934380;29;20243;-47
2023/01/18 04:07:24;;;;;;;15.80;12.13;;;2.00;99.90;;;;;;4934352;28;20196;-47
2023/01/18 04:09:50;;;;;;;16.75;11.90;;;2.20;99.90;;;;;;4934077;28;20232;-47
2023/01/18 04:12:17;;;;;;;18.23;13.18;;;2.10;99.90;;;;;;4934071;29;20208;-48
2023/01/18 04:14:43;;;;;;;20.77;13.13;;;2.10;99.90;;;;;;5000066;28;20231;-47
2023/01/18 04:17:10;;;;;;;19.75;13.90;;;2.10;99.90;;;;;;4934042;29;20283;-47
2023/01/18 04:19:39;;;;;;;23.50;14.50;;;2.20;99.90;;;;;;4933851;29;20220;-47
2023/01/18 04:22:06;;;;;;;22.15;15.00;;;2.30;99.90;;;;;;4934104;28;20287;-47
2023/01/18 04:24:33;;;;;;;22.13;13.30;;;2.10;99.90;;;;;;4933986;29;20270;-47
2023/01/18 04:26:59;;;;;;;22.95;14.07;;;2.20;99.90;;;;;;4933829;29;20206;-47
2023/01/18 04:29:26;;;;;;;23.02;13.45;;;2.00;99.90;;;;;;4933781;29;20193;-47
2023/01/18 04:31:53;;;;;;;18.17;13.10;;;2.30;99.90;;;;;;4933905;28;20288;-47
2023/01/18 04:34:21;;;;;;;26.00;14.52;;;2.20;99.90;;;;;;4933570;29;20231;-47
2023/01/18 04:36:49;;;;;;;22.05;13.02;;;1.60;99.90;;;;;;4934052;29;20204;-47
2023/01/18 04:39:15;;;;;;;23.48;15.07;;;2.20;99.90;;;;;;4932851;29;20216;-47
2023/01/18 04:41:42;;;;;;;24.60;14.18;;;1.40;99.90;;;;;;4932700;28;20215;-47
2023/01/18 04:44:09;;;;;;;22.52;14.13;;;2.10;99.90;;;;;;4933705;29;20251;-47
2023/01/18 04:46:36;;;;;;;26.10;15.02;;;2.00;99.90;;;;;;4933890;28;20204;-47
2023/01/18 04:49:03;;;;;;;13.50;9.73;;;2.00;99.90;;;;;;4933299;29;20192;-47
2023/01/18 04:51:30;;;;;;;23.58;11.82;;;1.40;99.90;;;;;;4933429;29;20211;-47
2023/01/18 04:53:58;;;;;;;17.88;11.60;;;2.10;99.90;;;;;;4933627;28;20269;-47
2023/01/18 04:56:25;;;;;;;25.75;12.70;;;2.30;99.90;;;;;;4933656;29;20565;-47
2023/01/18 04:58:52;;;;;;;22.02;11.18;;;2.10;99.90;;;;;;4933401;29;20266;-47
2023/01/18 05:01:19;;;;;;;18.13;11.13;;;2.10;99.90;;;;;;4933491;28;20681;-47
2023/01/18 05:03:45;;;;;;;17.77;10.93;;;2.30;99.90;;;;;;4933401;29;20227;-47
2023/01/18 05:06:14;;;;;;;20.73;9.48;;;2.40;99.90;;;;;;4933562;28;20204;-47
2023/01/18 05:08:41;;;;;;;18.35;10.27;;;2.30;99.90;;;;;;4932876;29;20204;-47
2023/01/18 05:11:11;;;;;;;13.77;9.75;;;2.40;99.90;;;;;;4933112;29;20204;-47
2023/01/18 05:13:38;;;;;;;17.90;10.48;;;2.10;99.90;;;;;;4933098;29;20292;-47
2023/01/18 05:16:06;;;;;;;19.10;9.88;;;2.40;99.90;;;;;;4933539;29;20200;-48
2023/01/18 05:18:33;;;;;;;14.52;9.57;;;2.10;99.90;;;;;;4933002;28;20220;-47
2023/01/18 05:21:00;;;;;;;17.33;9.57;;;2.10;99.90;;;;;;4933591;28;20207;-47
2023/01/18 05:23:27;;;;;;;17.45;9.02;;;2.00;99.90;;;;;;4933065;28;20208;-47
2023/01/18 05:25:54;;;;;;;17.50;8.63;;;2.10;99.90;;;;;;4933154;29;20207;-47
2023/01/18 05:28:23;;;;;;;20.42;10.10;;;1.60;99.90;;;;;;4932547;29;20204;-47
2023/01/18 05:30:50;;;;;;;12.68;8.90;;;2.10;99.90;;;;;;4932756;29;20232;-48
2023/01/18 05:33:17;;;;;;;13.77;8.55;;;2.20;99.90;;;;;;4932944;28;20204;-47
2023/01/18 05:35:49;;;;;;;9.95;7.68;;;2.10;99.90;;;;;;4932995;28;20211;-47
2023/01/18 05:38:16;;;;;;;8.88;6.82;;;2.30;99.90;;;;;;4932390;29;20715;-47
2023/01/18 05:40:43;;;;;;;12.48;7.47;;;2.40;99.90;;;;;;4933062;28;20200;-47
2023/01/18 05:43:10;;;;;;;9.30;7.72;;;2.00;99.90;;;;;;4932595;28;20631;-47
2023/01/18 05:45:38;;;;;;;12.25;9.27;;;2.50;99.90;;;;;;4932785;28;20222;-47
2023/01/18 05:48:05;;;;;;;10.93;7.70;;;2.40;99.90;;;;;;4932627;28;20204;-47
2023/01/18 05:50:31;;;;;;;12.45;7.40;;;2.20;99.90;;;;;;4931724;29;20196;-47
2023/01/18 05:53:13;;;;;;;10.73;8.23;;;2.20;99.90;;;;;;4932981;28;20188;-47
2023/01/18 05:55:40;;;;;;;9.13;7.32;;;1.60;99.90;;;;;;4932688;28;20247;-47
2023/01/18 05:58:07;;;;;;;11.13;8.13;;;2.40;99.90;;;;;;4932359;28;20748;-47
2023/01/18 06:00:34;;;;;;;18.50;7.70;;;2.20;99.90;;;;;;4932401;29;20205;-49
2023/01/18 06:03:02;;;;;;;15.68;8.90;;;2.10;99.90;;;;;;4932467;28;20219;-46
2023/01/18 06:05:29;;;;;;;12.30;8.45;;;2.10;99.90;;;;;;4969262;23;20238;-47
2023/01/18 06:07:56;;;;;;;15.70;8.05;;;1.90;99.90;;;;;;4951370;29;20234;-48
2023/01/18 06:10:22;;;;;;;13.45;9.70;;;2.00;99.90;;;;;;4952347;29;20208;-45
2023/01/18 06:12:49;;;;;;;14.70;8.40;;;1.90;99.90;;;;;;4952552;29;20195;-49
2023/01/18 06:15:16;;;;;;;11.88;7.70;;;2.30;99.90;;;;;;4953086;28;20223;-47
2023/01/18 06:17:44;;;;;;;13.77;9.27;;;1.80;99.90;;;;;;5018826;28;20280;-48
2023/01/18 06:20:13;;;;;;;11.52;7.78;;;2.20;99.90;;;;;;4951633;28;20223;-47
2023/01/18 06:22:40;;;;;;;10.95;7.70;;;2.00;99.90;;;;;;4951380;28;20200;-47
2023/01/18 06:25:08;;;;;;;20.30;8.10;;;2.30;99.90;;;;;;4951739;28;20254;-47
2023/01/18 06:27:36;;;;;;;13.40;7.72;;;2.40;99.90;;;;;;4951357;28;20208;-47
2023/01/18 06:30:05;;;;;;;9.48;6.90;;;2.30;99.90;;;;;;4950485;28;20208;-47
2023/01/18 06:32:31;;;;;;;10.57;7.13;;;2.30;99.90;;;;;;4950936;28;20199;-48
2023/01/18 06:34:58;;;;;;;8.30;6.55;;;2.30;99.90;;;;;;4950765;28;20219;-48
2023/01/18 06:37:26;;;;;;;7.70;6.95;;;2.10;99.90;;;;;;4950544;29;20199;-47
2023/01/18 06:39:52;;;;;;;12.45;7.68;;;2.50;99.90;;;;;;4950367;29;20265;-48
2023/01/18 06:42:19;;;;;;;9.95;7.60;;;2.30;99.90;;;;;;4949958;29;20195;-48
2023/01/18 06:44:46;;;;;;;7.57;6.10;;;2.10;99.90;;;;;;4950476;28;20561;-47
2023/01/18 06:47:14;;;;;;;12.80;7.55;;;2.30;99.90;;;;;;4950768;28;20199;-49
2023/01/18 06:49:40;;;;;;;10.52;6.65;;;2.40;99.90;;;;;;4950305;28;20198;-48
2023/01/18 06:52:07;;;;;;;11.70;7.50;;;2.20;99.90;;;;;;4950502;28;20195;-48
2023/01/18 06:54:35;;;;;;;12.77;7.32;;;2.20;99.90;;;;;;4950053;28;20251;-48
2023/01/18 06:57:02;;;;;;;13.77;6.90;;;2.40;99.90;;;;;;5016180;28;20214;-50
2023/01/18 06:59:28;;;;;;;9.48;6.65;;;2.20;99.90;;;;;;4950662;28;20223;-48
2023/01/18 07:01:55;;;;;;;9.38;7.10;;;2.40;99.90;;;;;;4950974;28;20210;-47
2023/01/18 07:04:22;;;;;;;22.17;8.25;;;2.40;99.90;;;;;;4953253;28;20741;-48
2023/01/18 07:06:48;;;;;;;11.60;7.05;;;2.20;99.90;;;;;;4953567;29;20202;-49
2023/01/18 07:09:15;;;;;;;16.00;6.63;;;2.40;99.90;;;;;;4952775;29;20207;-48
2023/01/18 07:11:43;;;;;;;11.95;7.20;;;2.20;99.90;;;;;;4953691;28;20211;-47
2023/01/18 07:14:10;;;;;;;7.65;6.10;;;2.20;99.90;;;;;;4954173;28;20259;-48
2023/01/18 07:16:37;;;;;;;12.45;6.93;;;2.30;99.90;;;;;;4953749;28;20210;-47
2023/01/18 07:19:04;;;;;;;9.65;6.70;;;2.00;99.90;;;;;;4953435;28;20570;-47
2023/01/18 07:21:31;;;;;;;13.27;6.93;;;2.00;99.90;;;;;;4953884;28;20517;-49
2023/01/18 07:23:58;;;;;;;8.77;7.57;;;2.10;99.90;;;;;;4953699;28;20269;-47
2023/01/18 07:26:26;;;;;;;11.68;7.13;;;2.00;99.90;;;;;;4953322;28;20203;-48
2023/01/18 07:28:55;;;;;;;12.15;7.22;;;2.30;99.90;;;;;;4953340;28;20206;-48
2023/01/18 07:31:22;;;;;;;13.02;7.70;;;2.10;99.90;;;;;;5019309;28;20204;-48
2023/01/18 07:33:49;;;;;;;10.70;7.10;;;2.20;99.90;;;;;;4953614;28;20225;-47
2023/01/18 07:36:16;;;;;;;9.18;6.15;;;1.60;99.90;;;;;;4953461;28;20207;-46
2023/01/18 07:38:42;;;;;;;14.55;7.30;;;2.10;99.90;;;;;;4952988;28;20219;-46
2023/01/18 07:41:13;;;;;;;12.73;7.90;;;2.00;99.90;;;;;;4953110;29;20207;-48
2023/01/18 07:43:40;;;;;;;16.30;7.13;;;2.40;99.90;;;;;;4953520;28;20203;-48
2023/01/18 07:46:12;;;;;;;12.77;7.72;;;2.10;99.90;;;;;;4954839;28;20221;-47
2023/01/18 07:48:38;;;;;;;12.35;5.82;;;2.30;99.90;;;;;;4954219;29;20214;-47
2023/01/18 07:51:07;;;;;;;11.18;7.13;;;2.10;99.90;;;;;;4953485;28;20200;-48
2023/01/18 07:53:36;;;;;;;9.52;6.28;;;2.20;99.90;;;;;;4953918;28;20203;-47
2023/01/18 07:56:04;;;;;;;10.88;6.05;;;2.20;99.90;;;;;;4953706;28;20223;-48
2023/01/18 07:58:31;;;;;;;7.85;6.57;;;2.20;99.90;;;;;;5019430;28;20208;-48
2023/01/18 08:01:02;;;;;;;11.35;6.85;;;2.10;99.90;;;;;;4952826;28;20218;-47
2023/01/18 08:03:30;;;;;;;11.80;7.43;;;2.40;99.90;;;;;;4952296;28;20432;-46
2023/01/18 08:05:58;;;;;;;10.15;6.28;;;2.70;99.90;;;;;;4953622;28;20097;-47
2023/01/18 08:08:26;;;;;;;8.90;6.35;;;2.20;99.90;;;;;;4953646;28;20282;-48
2023/01/18 08:10:55;;;;;;;11.73;7.70;;;1.80;99.90;;;;;;4954080;28;20223;-48
2023/01/18 08:13:21;;;;;;;14.80;7.53;;;2.00;99.90;;;;;;4952252;28;20671;-47
2023/01/18 08:15:48;;;;;;;14.00;8.13;;;2.60;99.90;;;;;;4952054;28;20447;-47
2023/01/18 08:18:15;;;;;;;11.45;8.57;;;2.40;99.90;;;;;;4952323;29;20216;-47
2023/01/18 08:20:44;;;;;;;11.63;6.97;;;2.60;99.90;;;;;;4952565;29;20219;-48
2023/01/18 08:23:11;;;;;;;10.32;7.20;;;2.70;99.90;;;;;;4952701;28;20204;-46
2023/01/18 08:25:38;;;;;;;11.95;7.38;;;2.70;99.90;;;;;;4952392;28;20219;-47
2023/01/18 08:28:05;;;;;;;11.27;7.80;;;2.30;99.90;;;;;;4951021;29;20909;-50
2023/01/18 08:30:34;;;;;;;10.55;7.30;;;2.90;99.90;;;;;;4951751;29;20800;-49
2023/01/18 08:33:02;;;;;;;13.02;7.45;;;2.90;99.90;;;;;;4953059;28;20207;-48
2023/01/18 08:35:30;;;;;;;9.35;6.90;;;2.90;99.90;;;;;;4952992;28;20553;-47
2023/01/18 08:38:00;;;;;;;11.20;7.40;;;2.80;99.90;;;;;;4951710;28;20766;-48
2023/01/18 08:40:28;;;;;;;9.70;7.05;;;3.60;99.90;;;;;;4952018;28;20613;-47
2023/01/18 08:42:57;;;;;;;11.30;7.43;;;3.20;99.90;;;;;;4952822;28;20226;-48
2023/01/18 08:45:24;;;;;;;9.00;6.70;;;2.80;99.90;;;;;;4952224;28;20276;-47
2023/01/18 08:47:56;;;;;;;12.45;7.80;;;2.90;99.90;;;;;;4951594;28;20465;-47
2023/01/18 08:50:24;;;;;;;13.68;7.72;;;3.20;99.90;;;;;;4951641;28;20432;-48
2023/01/18 08:52:51;;;;;;;10.15;7.32;;;3.20;99.90;;;;;;4952124;28;20717;-48
2023/01/18 08:55:20;;;;;;;12.40;6.97;;;2.90;99.90;;;;;;5018422;28;20281;-48
2023/01/18 08:57:47;;;;;;;10.90;6.95;;;3.10;99.90;;;;;;4952414;28;20687;-49
2023/01/18 09:00:15;;;;;;;11.02;6.70;;;3.10;99.90;;;;;;4952293;29;20234;-48
2023/01/18 09:02:41;;;;;;;10.20;7.38;;;3.20;99.90;;;;;;4952184;28;20207;-48
2023/01/18 09:05:09;;;;;;;8.77;6.32;;;3.10;99.90;;;;;;4952096;28;20261;-48
2023/01/18 09:07:35;;;;;;;12.32;7.50;;;3.20;99.90;;;;;;4952114;28;20214;-47
2023/01/18 09:10:03;;;;;;;13.27;8.38;;;2.60;99.90;;;;;;4952135;29;20312;-48
2023/01/18 09:12:33;;;;;;;14.02;7.03;;;3.30;99.90;;;;;;4951804;28;20253;-47
2023/01/18 09:15:00;;;;;;;11.88;6.35;;;3.30;99.90;;;;;;4952023;28;20223;-47
2023/01/18 09:17:27;;;;;;;7.32;6.50;;;3.30;99.90;;;;;;4952217;28;20207;-47
2023/01/18 09:19:53;;;;;;;11.50;7.38;;;2.90;99.90;;;;;;4951673;28;20223;-48
2023/01/18 09:22:20;;;;;;;13.57;8.38;;;3.30;99.90;;;;;;4950575;28;20435;-47
2023/01/18 09:24:47;;;;;;;11.23;6.55;;;3.50;99.90;;;;;;4951769;28;20223;-48
2023/01/18 09:27:14;;;;;;;13.15;6.35;;;3.50;99.90;;;;;;4951911;28;20686;-47
2023/01/18 09:29:42;;;;;;;11.65;7.13;;;3.60;99.90;;;;;;4950561;29;20207;-48
2023/01/18 09:32:09;;;;;;;11.45;6.90;;;3.60;99.90;;;;;;4951522;29;20207;-48
2023/01/18 09:34:36;;;;;;;14.88;7.85;;;3.30;99.90;;;;;;4951508;28;20273;-47
2023/01/18 09:37:03;;;;;;;10.70;6.90;;;3.60;99.90;;;;;;4951870;28;20530;-48
2023/01/18 09:39:29;;;;;;;8.98;6.60;;;3.00;99.90;;;;;;4950956;29;20238;-48
2023/01/18 09:41:58;;;;;;;13.57;8.35;;;3.60;99.90;;;;;;4951604;28;20699;-48
2023/01/18 09:44:29;;;;;;;13.95;7.10;;;3.60;99.90;;;;;;5017130;28;20227;-48
2023/01/18 09:47:01;;;;;;;13.07;7.07;;;3.50;99.90;;;;;;5017554;28;20676;-48
2023/01/18 09:49:36;;;;;;;10.70;7.03;;;3.60;99.90;;;;;;4951319;28;20207;-48
2023/01/18 09:52:13;;;;;;;12.30;7.97;;;3.60;99.90;;;;;;4951296;29;20221;-48
2023/01/18 09:54:47;;;;;;;17.45;7.93;;;3.20;99.90;;;;;;4950980;28;20222;-48
2023/01/18 09:57:26;;;;;;;15.13;8.15;;;3.70;99.90;;;;;;4951570;29;20206;-47
2023/01/18 09:59:55;;;;;;;16.45;10.75;;;3.90;99.90;;;;;;4950856;28;20230;-47
2023/01/18 10:02:28;;;;;;;14.07;8.40;;;4.20;99.90;;;;;;4951343;29;20204;-47
2023/01/18 10:04:58;;;;;;;13.55;8.18;;;4.00;99.90;;;;;;5017174;28;20260;-48
2023/01/18 10:07:29;;;;;;;16.67;7.50;;;4.10;99.90;;;;;;4951331;29;20285;-48
2023/01/18 10:09:59;;;;;;;10.68;7.80;;;4.30;99.90;;;;;;4951041;28;20199;-48
2023/01/18 10:12:33;;;;;;;17.23;8.50;;;4.10;99.90;;;;;;4950940;28;20631;-48
2023/01/18 10:15:06;;;;;;;8.98;7.18;;;4.40;99.90;;;;;;4951128;28;20227;-47
2023/01/18 10:17:36;;;;;;;13.30;8.10;;;4.50;99.90;;;;;;4950820;28;20279;-48
2023/01/18 10:20:13;;;;;;;13.52;6.80;;;4.20;99.90;;;;;;4951036;29;20215;-50
2023/01/18 10:22:46;;;;;;;8.25;6.50;;;4.10;99.90;;;;;;4950986;28;20203;-47
2023/01/18 10:25:20;;;;;;;11.80;7.20;;;4.50;99.90;;;;;;4950804;28;20285;-47
2023/01/18 10:28:25;;;;;;;11.73;7.95;;;4.30;99.90;;;;;;4950690;29;20199;-45
2023/01/18 10:31:08;;;;;;;16.25;8.70;;;3.80;99.90;;;;;;4951071;28;20278;-49
2023/01/18 10:33:39;;;;;;;9.40;6.95;;;4.30;99.90;;;;;;4950979;29;20206;-47
2023/01/18 10:36:12;;;;;;;6.60;5.72;;;4.60;99.90;;;;;;4950660;28;20215;-49
2023/01/18 10:38:40;;;;;;;10.07;6.68;;;4.20;99.90;;;;;;5015682;28;20232;-47
2023/01/18 10:41:19;;;;;;;21.25;8.85;;;4.70;99.90;;;;;;4950769;28;20250;-47
2023/01/18 10:43:45;;;;;;;12.20;7.35;;;4.40;99.90;;;;;;4949046;28;20439;-48
2023/01/18 10:46:18;;;;;;;13.30;6.50;;;4.40;99.90;;;;;;4950537;28;20286;-49
2023/01/18 10:48:48;;;;;;;8.88;6.05;;;4.70;99.90;;;;;;4950842;28;20308;-47
2023/01/18 10:51:28;;;;;;;10.18;6.25;;;4.40;99.90;;;;;;4950484;28;20210;-48
2023/01/18 10:53:56;;;;;;;16.73;5.57;;;4.60;99.90;;;;;;4950434;28;20211;-48
2023/01/18 10:56:25;;;;;;;10.13;5.18;;;4.70;99.90;;;;;;4950478;29;20206;-48
2023/01/18 10:58:56;;;;;;;9.10;5.10;;;4.70;99.90;;;;;;4950357;28;20234;-48
2023/01/18 11:01:26;;;;;;;6.55;4.60;;;4.80;99.90;;;;;;4950326;28;20227;-48
2023/01/18 11:04:04;;;;;;;7.85;5.13;;;4.70;99.90;;;;;;4950508;28;20207;-48
2023/01/18 11:06:31;;;;;;;7.68;4.50;;;5.00;99.90;;;;;;4950426;28;20200;-47
2023/01/18 11:08:58;;;;;;;8.15;4.30;;;4.40;99.90;;;;;;4950150;28;20575;-46
2023/01/18 11:14:23;;;;;;;7.77;4.90;;;4.70;99.90;;;;;;4953021;28;20446;-48
2023/01/18 11:16:57;;;;;;;9.23;4.93;;;4.90;99.90;;;;;;4949922;29;20444;-48
2023/01/18 11:19:25;;;;;;;10.20;3.95;;;4.90;99.90;;;;;;4950126;28;20199;-49
2023/01/18 11:21:52;;;;;;;9.82;5.60;;;4.90;99.90;;;;;;4949502;28;21077;-46
2023/01/18 11:24:24;;;;;;;8.95;5.18;;;4.60;99.90;;;;;;4950817;28;20295;-47
2023/01/18 11:26:54;;;;;;;9.90;4.38;;;5.00;99.90;;;;;;5016555;28;20680;-47
2023/01/18 11:29:21;;;;;;;7.55;4.93;;;4.90;99.90;;;;;;4950598;28;20215;-47
2023/01/18 11:31:49;;;;;;;10.43;5.00;;;4.80;99.90;;;;;;4949636;29;20910;-46
2023/01/18 11:34:28;;;;;;;11.68;6.40;;;4.90;99.90;;;;;;4949959;28;20444;-47
2023/01/18 11:36:56;;;;;;;8.73;4.90;;;5.20;99.90;;;;;;4950290;29;20203;-47
2023/01/18 11:39:32;;;;;;;11.30;6.20;;;5.00;99.90;;;;;;4949487;28;20200;-48
2023/01/18 11:42:22;;;;;;;11.07;6.15;;;4.80;99.90;;;;;;4949886;29;20554;-48
2023/01/18 11:45:00;;;;;;;9.63;5.30;;;4.70;99.90;;;;;;4949556;28;20222;-48
2023/01/18 11:47:32;;;;;;;7.90;4.88;;;5.40;99.90;;;;;;4949889;29;20200;-49
2023/01/18 11:50:06;;;;;;;12.73;4.50;;;4.90;99.90;;;;;;4951559;28;20204;-48
2023/01/18 11:52:42;;;;;;;12.45;5.25;;;4.70;99.90;;;;;;4952684;29;20191;-49
2023/01/18 11:55:20;;;;;;;10.15;6.22;;;4.90;99.90;;;;;;4953038;28;20259;-47
2023/01/18 11:57:47;;;;;;;10.98;4.70;;;4.90;99.90;;;;;;4952567;29;20203;-48
2023/01/18 12:00:15;;;;;;;5.50;4.30;;;4.80;99.90;;;;;;4952811;28;20238;-48
2023/01/18 12:02:55;;;;;;;8.75;4.60;;;5.00;99.90;;;;;;4952715;28;20207;-47
2023/01/18 12:05:33;;;;;;;8.68;5.47;;;4.60;99.90;;;;;;4976113;23;20235;-48
2023/01/18 12:08:19;;;;;;;7.70;5.57;;;5.10;99.90;;;;;;4953298;29;20207;-48
2023/01/18 12:10:59;;;;;;;13.10;5.10;;;4.80;99.90;;;;;;5017462;28;20214;-47
2023/01/18 12:13:35;;;;;;;8.27;5.20;;;4.10;99.90;;;;;;4953085;29;20263;-48
2023/01/18 12:16:11;;;;;;;13.18;6.13;;;5.00;99.90;;;;;;4953081;28;20436;-47
2023/01/18 12:19:07;;;;;;;9.95;5.85;;;5.10;99.90;;;;;;4952286;29;20439;-47
2023/01/18 12:21:43;;;;;;;11.95;4.72;;;5.50;99.90;;;;;;4954956;28;20235;-48
2023/01/18 12:24:33;;;;;;;11.32;5.18;;;5.10;99.90;;;;;;4953639;28;20195;-46
2023/01/18 12:27:08;;;;;;;11.50;5.45;;;5.00;99.90;;;;;;4952707;28;20333;-46
2023/01/18 12:30:10;;;;;;;12.55;5.75;;;5.20;99.90;;;;;;4952643;28;20659;-46
2023/01/18 12:32:54;;;;;;;7.53;5.55;;;5.00;99.90;;;;;;4940801;28;20214;-46
2023/01/18 12:35:34;;;;;;;6.38;5.68;;;5.00;99.90;;;;;;4952591;28;20223;-47
2023/01/18 12:38:14;;;;;;;9.88;7.40;;;4.60;99.90;;;;;;4952544;29;20290;-47
2023/01/18 12:41:02;;;;;;;8.95;5.75;;;4.60;99.90;;;;;;4952385;29;20252;-48
2023/01/18 12:43:39;;;;;;;9.07;5.35;;;4.60;99.90;;;;;;4952555;28;20203;-47
2023/01/18 12:46:09;;;;;;;10.15;5.28;;;4.90;99.90;;;;;;4952679;28;20211;-49
2023/01/18 12:48:46;;;;;;;10.65;6.22;;;4.70;99.90;;;;;;4952345;29;20226;-47
2023/01/18 12:51:16;;;;;;;11.00;6.28;;;4.60;99.90;;;;;;4952532;28;20671;-46
2023/01/18 12:53:48;;;;;;;6.43;5.07;;;4.90;99.90;;;;;;4952499;28;20552;-47
2023/01/18 12:56:19;;;;;;;10.82;5.65;;;4.70;99.90;;;;;;4952298;28;20255;-47
2023/01/18 12:58:53;;;;;;;8.77;5.85;;;4.10;99.90;;;;;;4952431;29;20195;-49
2023/01/18 13:01:22;;;;;;;19.65;5.53;;;4.60;99.90;;;;;;4952300;28;20223;-49
2023/01/18 13:03:53;;;;;;;7.72;4.60;;;4.90;99.90;;;;;;4952215;28;20205;-49
2023/01/18 13:06:21;;;;;;;10.75;5.60;;;4.60;99.90;;;;;;4952460;28;20447;-47
2023/01/18 13:08:54;;;;;;;11.00;5.43;;;4.10;99.90;;;;;;4952517;28;20234;-48
2023/01/18 13:11:25;;;;;;;11.05;6.90;;;5.00;99.90;;;;;;4952788;28;20206;-47
2023/01/18 13:13:58;;;;;;;18.45;6.63;;;4.60;99.90;;;;;;4952380;28;20203;-47
2023/01/18 13:16:38;;;;;;;15.45;5.65;;;5.20;99.90;;;;;;4952379;28;20238;-47
2023/01/18 13:19:09;;;;;;;10.60;6.05;;;4.80;99.90;;;;;;4952099;28;20204;-47
2023/01/18 13:21:47;;;;;;;7.32;4.95;;;4.70;99.90;;;;;;4952467;28;20222;-48
2023/01/18 13:24:24;;;;;;;9.13;5.60;;;4.80;99.90;;;;;;4952836;28;20207;-48
2023/01/18 13:26:52;;;;;;;8.75;5.22;;;4.70;99.90;;;;;;4952469;28;20200;-48
2023/01/18 13:29:27;;;;;;;8.77;6.30;;;4.80;99.90;;;;;;4952021;28;20234;-49
2023/01/18 13:31:53;;;;;;;12.77;5.97;;;4.70;99.90;;;;;;4952601;28;20204;-49
2023/01/18 13:34:30;;;;;;;11.65;6.60;;;4.50;99.90;;;;;;4951974;28;20222;-47